sensor_id;sensor_type;location;lat;lon;timestamp;pressure;altitude;pressure_sealevel;temperature;humidity
19114;BME280;9689;51.052;13.772;2023-01-29T00:04:50;101589.00;;;-0.83;66.49
19114;BME280;9689;51.052;13.772;2023-01-29T00:09:52;101580.09;;;-0.91;66.51
19114;BME280;9689;51.052;13.772;2023-01-29T00:14:53;101580.97;;;-0.91;66.56
19114;BME280;9689;51.052;13.772;2023-01-29T00:19:54;101586.94;;;-0.90;66.51
19114;BME280;9689;51.052;13.772;2023-01-29T00:24:56;101581.44;;;-0.80;65.85
19114;BME280;9689;51.052;13.772;2023-01-29T00:29:57;101570.16;;;-0.85;66.37
19114;BME280;9689;51.052;13.772;2023-01-29T00:35:12;101557.81;;;-0.94;66.38
19114;BME280;9689;51.052;13.772;2023-01-29T00:40:15;101560.88;;;-1.01;66.78
19114;BME280;9689;51.052;13.772;2023-01-29T00:45:17;101553.13;;;-1.02;66.92
19114;BME280;9689;51.052;13.772;2023-01-29T00:50:18;101557.22;;;-1.06;66.67
19114;BME280;9689;51.052;13.772;2023-01-29T00:55:21;101547.34;;;-1.16;67.63
19114;BME280;9689;51.052;13.772;2023-01-29T01:00:22;101551.16;;;-1.08;67.08
19114;BME280;9689;51.052;13.772;2023-01-29T01:05:24;101554.94;;;-1.00;66.78
19114;BME280;9689;51.052;13.772;2023-01-29T01:10:28;101555.88;;;-0.98;66.26
19114;BME280;9689;51.052;13.772;2023-01-29T01:15:31;101575.41;;;-1.00;66.25
19114;BME280;9689;51.052;13.772;2023-01-29T01:20:34;101573.72;;;-0.99;65.99
19114;BME280;9689;51.052;13.772;2023-01-29T01:25:36;101570.22;;;-0.83;65.07
19114;BME280;9689;51.052;13.772;2023-01-29T01:30:37;101554.81;;;-1.03;66.25
19114;BME280;9689;51.052;13.772;2023-01-29T01:35:38;101552.38;;;-1.00;65.39
19114;BME280;9689;51.052;13.772;2023-01-29T01:40:44;101554.06;;;-1.00;65.50
19114;BME280;9689;51.052;13.772;2023-01-29T01:45:45;101550.38;;;-0.88;64.75
19114;BME280;9689;51.052;13.772;2023-01-29T01:50:50;101536.97;;;-1.01;65.46
19114;BME280;9689;51.052;13.772;2023-01-29T01:55:56;101534.81;;;-1.11;66.95
19114;BME280;9689;51.052;13.772;2023-01-29T02:00:58;101542.31;;;-1.15;66.39
19114;BME280;9689;51.052;13.772;2023-01-29T02:05:59;101540.63;;;-1.14;67.33
19114;BME280;9689;51.052;13.772;2023-01-29T02:11:19;101529.81;;;-1.08;67.07
19114;BME280;9689;51.052;13.772;2023-01-29T02:16:20;101525.53;;;-1.27;67.48
19114;BME280;9689;51.052;13.772;2023-01-29T02:21:49;101517.91;;;-1.26;67.76
19114;BME280;9689;51.052;13.772;2023-01-29T02:27:02;101523.34;;;-1.37;68.59
19114;BME280;9689;51.052;13.772;2023-01-29T02:32:14;101535.06;;;-1.23;67.54
19114;BME280;9689;51.052;13.772;2023-01-29T02:37:17;101520.72;;;-1.39;68.34
19114;BME280;9689;51.052;13.772;2023-01-29T02:42:26;101519.59;;;-1.44;67.83
19114;BME280;9689;51.052;13.772;2023-01-29T02:47:32;101528.00;;;-1.47;68.45
19114;BME280;9689;51.052;13.772;2023-01-29T02:52:39;101527.19;;;-1.63;68.61
19114;BME280;9689;51.052;13.772;2023-01-29T02:57:45;101533.31;;;-1.60;68.82
19114;BME280;9689;51.052;13.772;2023-01-29T03:02:53;101537.53;;;-1.78;69.41
19114;BME280;9689;51.052;13.772;2023-01-29T03:07:58;101533.97;;;-1.82;68.89
19114;BME280;9689;51.052;13.772;2023-01-29T03:13:08;101528.31;;;-1.75;69.13
19114;BME280;9689;51.052;13.772;2023-01-29T03:18:17;101541.09;;;-1.75;68.62
19114;BME280;9689;51.052;13.772;2023-01-29T03:23:20;101544.41;;;-1.77;68.79
19114;BME280;9689;51.052;13.772;2023-01-29T03:28:22;101526.56;;;-1.76;68.38
19114;BME280;9689;51.052;13.772;2023-01-29T03:33:48;101531.19;;;-1.68;68.42
19114;BME280;9689;51.052;13.772;2023-01-29T03:38:49;101531.94;;;-1.71;68.02
19114;BME280;9689;51.052;13.772;2023-01-29T03:43:54;101542.31;;;-1.84;68.81
19114;BME280;9689;51.052;13.772;2023-01-29T03:49:08;101545.47;;;-1.90;68.30
19114;BME280;9689;51.052;13.772;2023-01-29T03:54:15;101532.59;;;-1.91;68.28
19114;BME280;9689;51.052;13.772;2023-01-29T03:59:27;101535.00;;;-1.94;68.68
19114;BME280;9689;51.052;13.772;2023-01-29T04:05:01;101546.53;;;-2.03;68.88
19114;BME280;9689;51.052;13.772;2023-01-29T04:10:12;101540.22;;;-2.09;68.97
19114;BME280;9689;51.052;13.772;2023-01-29T04:15:16;101529.00;;;-2.29;69.94
19114;BME280;9689;51.052;13.772;2023-01-29T04:20:21;101517.50;;;-2.21;69.28
19114;BME280;9689;51.052;13.772;2023-01-29T04:25:26;101504.59;;;-2.24;70.17
19114;BME280;9689;51.052;13.772;2023-01-29T04:30:37;101501.66;;;-2.32;70.42
19114;BME280;9689;51.052;13.772;2023-01-29T04:35:53;101496.06;;;-2.41;70.43
19114;BME280;9689;51.052;13.772;2023-01-29T04:41:04;101483.69;;;-2.33;69.98
19114;BME280;9689;51.052;13.772;2023-01-29T04:46:12;101486.53;;;-2.27;69.84
19114;BME280;9689;51.052;13.772;2023-01-29T04:51:21;101477.13;;;-2.28;70.67
19114;BME280;9689;51.052;13.772;2023-01-29T04:56:28;101461.22;;;-2.40;70.42
19114;BME280;9689;51.052;13.772;2023-01-29T05:01:31;101452.28;;;-2.48;70.52
19114;BME280;9689;51.052;13.772;2023-01-29T05:06:35;101444.53;;;-2.34;70.71
19114;BME280;9689;51.052;13.772;2023-01-29T05:11:37;101441.66;;;-2.40;70.86
19114;BME280;9689;51.052;13.772;2023-01-29T05:16:42;101439.19;;;-2.38;70.42
19114;BME280;9689;51.052;13.772;2023-01-29T05:21:47;101443.72;;;-2.33;69.92
19114;BME280;9689;51.052;13.772;2023-01-29T05:26:51;101446.78;;;-2.40;69.77
19114;BME280;9689;51.052;13.772;2023-01-29T05:32:09;101432.69;;;-2.49;71.01
19114;BME280;9689;51.052;13.772;2023-01-29T05:37:11;101427.97;;;-2.58;71.14
19114;BME280;9689;51.052;13.772;2023-01-29T05:42:12;101428.13;;;-2.55;71.21
19114;BME280;9689;51.052;13.772;2023-01-29T05:47:13;101440.81;;;-2.57;70.99
19114;BME280;9689;51.052;13.772;2023-01-29T05:52:15;101431.47;;;-2.56;70.83
19114;BME280;9689;51.052;13.772;2023-01-29T05:57:15;101416.16;;;-2.56;71.29
19114;BME280;9689;51.052;13.772;2023-01-29T06:02:16;101427.91;;;-2.60;71.76
19114;BME280;9689;51.052;13.772;2023-01-29T06:07:18;101433.81;;;-2.61;71.76
19114;BME280;9689;51.052;13.772;2023-01-29T06:12:20;101445.78;;;-2.60;72.17
19114;BME280;9689;51.052;13.772;2023-01-29T06:17:21;101435.16;;;-2.51;71.43
19114;BME280;9689;51.052;13.772;2023-01-29T06:22:23;101445.13;;;-2.56;71.48
19114;BME280;9689;51.052;13.772;2023-01-29T06:27:24;101457.47;;;-2.47;71.29
19114;BME280;9689;51.052;13.772;2023-01-29T06:32:25;101481.63;;;-2.24;70.39
19114;BME280;9689;51.052;13.772;2023-01-29T06:37:28;101472.97;;;-1.92;69.36
19114;BME280;9689;51.052;13.772;2023-01-29T06:42:29;101485.44;;;-2.16;69.86
19114;BME280;9689;51.052;13.772;2023-01-29T06:47:30;101485.97;;;-2.05;69.61
19114;BME280;9689;51.052;13.772;2023-01-29T06:52:32;101483.38;;;-2.23;70.24
19114;BME280;9689;51.052;13.772;2023-01-29T06:57:32;101504.81;;;-2.19;69.79
19114;BME280;9689;51.052;13.772;2023-01-29T07:02:33;101524.66;;;-1.97;69.78
19114;BME280;9689;51.052;13.772;2023-01-29T07:07:35;101525.09;;;-1.88;69.42
19114;BME280;9689;51.052;13.772;2023-01-29T07:12:36;101534.09;;;-1.79;68.78
19114;BME280;9689;51.052;13.772;2023-01-29T07:17:37;101535.66;;;-1.64;68.75
19114;BME280;9689;51.052;13.772;2023-01-29T07:22:39;101542.59;;;-1.62;68.89
19114;BME280;9689;51.052;13.772;2023-01-29T07:27:39;101539.16;;;-1.62;67.75
19114;BME280;9689;51.052;13.772;2023-01-29T07:32:40;101525.66;;;-1.60;67.87
19114;BME280;9689;51.052;13.772;2023-01-29T07:37:42;101513.19;;;-1.54;68.50
19114;BME280;9689;51.052;13.772;2023-01-29T07:42:43;101516.97;;;-1.63;69.45
19114;BME280;9689;51.052;13.772;2023-01-29T07:47:44;101515.88;;;-1.68;69.62
19114;BME280;9689;51.052;13.772;2023-01-29T07:52:46;101508.94;;;-1.35;68.50
19114;BME280;9689;51.052;13.772;2023-01-29T07:57:47;101504.03;;;-1.31;67.75
19114;BME280;9689;51.052;13.772;2023-01-29T08:03:00;101490.00;;;-1.03;66.94
19114;BME280;9689;51.052;13.772;2023-01-29T08:08:03;101463.38;;;-1.07;67.29
19114;BME280;9689;51.052;13.772;2023-01-29T08:13:06;101471.69;;;-0.74;66.60
19114;BME280;9689;51.052;13.772;2023-01-29T08:18:07;101460.97;;;-0.65;65.99
19114;BME280;9689;51.052;13.772;2023-01-29T08:23:12;101457.53;;;-0.46;66.09
19114;BME280;9689;51.052;13.772;2023-01-29T08:28:14;101449.81;;;-0.67;65.80
19114;BME280;9689;51.052;13.772;2023-01-29T08:33:14;101445.47;;;-0.49;65.26
19114;BME280;9689;51.052;13.772;2023-01-29T08:38:21;101452.88;;;-0.36;65.79
19114;BME280;9689;51.052;13.772;2023-01-29T08:43:21;101444.47;;;-0.52;65.85
19114;BME280;9689;51.052;13.772;2023-01-29T08:48:22;101451.94;;;-0.38;65.36
19114;BME280;9689;51.052;13.772;2023-01-29T08:53:25;101466.06;;;-0.26;65.67
19114;BME280;9689;51.052;13.772;2023-01-29T08:58:26;101466.47;;;-0.37;64.59
19114;BME280;9689;51.052;13.772;2023-01-29T09:03:26;101465.22;;;-0.46;65.78
19114;BME280;9689;51.052;13.772;2023-01-29T09:08:28;101445.53;;;-0.47;66.06
19114;BME280;9689;51.052;13.772;2023-01-29T09:13:29;101438.41;;;-0.54;66.34
19114;BME280;9689;51.052;13.772;2023-01-29T09:18:30;101447.84;;;-0.34;66.00
19114;BME280;9689;51.052;13.772;2023-01-29T09:23:32;101439.56;;;-0.27;66.49
19114;BME280;9689;51.052;13.772;2023-01-29T09:28:33;101430.63;;;0.26;64.61
19114;BME280;9689;51.052;13.772;2023-01-29T09:33:34;101417.81;;;-0.17;66.06
19114;BME280;9689;51.052;13.772;2023-01-29T09:38:36;101428.91;;;0.04;65.41
19114;BME280;9689;51.052;13.772;2023-01-29T09:43:44;101434.97;;;0.27;64.18
19114;BME280;9689;51.052;13.772;2023-01-29T09:48:51;101433.16;;;0.04;64.83
19114;BME280;9689;51.052;13.772;2023-01-29T09:54:07;101411.34;;;0.13;64.16
19114;BME280;9689;51.052;13.772;2023-01-29T09:59:12;101391.53;;;0.09;65.41
19114;BME280;9689;51.052;13.772;2023-01-29T10:04:40;101387.09;;;0.05;65.76
19114;BME280;9689;51.052;13.772;2023-01-29T10:09:57;101377.41;;;0.19;65.50
19114;BME280;9689;51.052;13.772;2023-01-29T10:15:13;101378.16;;;-0.05;66.11
19114;BME280;9689;51.052;13.772;2023-01-29T10:20:32;101388.84;;;0.27;65.21
19114;BME280;9689;51.052;13.772;2023-01-29T10:25:39;101382.28;;;0.80;63.61
19114;BME280;9689;51.052;13.772;2023-01-29T10:30:44;101382.59;;;0.65;64.86
19114;BME280;9689;51.052;13.772;2023-01-29T10:35:49;101387.09;;;0.95;63.80
19114;BME280;9689;51.052;13.772;2023-01-29T10:41:00;101386.75;;;0.85;63.51
19114;BME280;9689;51.052;13.772;2023-01-29T10:46:17;101380.34;;;0.74;63.70
19114;BME280;9689;51.052;13.772;2023-01-29T10:51:34;101376.19;;;0.78;64.08
19114;BME280;9689;51.052;13.772;2023-01-29T10:56:50;101359.81;;;0.97;63.76
19114;BME280;9689;51.052;13.772;2023-01-29T11:01:56;101349.31;;;0.91;63.85
19114;BME280;9689;51.052;13.772;2023-01-29T11:06:58;101329.66;;;1.15;62.77
19114;BME280;9689;51.052;13.772;2023-01-29T11:12:02;101312.53;;;0.90;64.26
19114;BME280;9689;51.052;13.772;2023-01-29T11:17:04;101302.41;;;1.20;63.02
19114;BME280;9689;51.052;13.772;2023-01-29T11:22:12;101298.66;;;1.10;63.66
19114;BME280;9689;51.052;13.772;2023-01-29T11:27:20;101286.13;;;0.94;65.07
19114;BME280;9689;51.052;13.772;2023-01-29T11:32:26;101283.25;;;0.85;64.45
19114;BME280;9689;51.052;13.772;2023-01-29T11:37:33;101266.34;;;1.16;65.55
19114;BME280;9689;51.052;13.772;2023-01-29T11:42:37;101267.25;;;1.18;64.14
19114;BME280;9689;51.052;13.772;2023-01-29T11:47:37;101272.69;;;1.27;64.19
19114;BME280;9689;51.052;13.772;2023-01-29T11:52:39;101278.06;;;1.60;68.42
19114;BME280;9689;51.052;13.772;2023-01-29T11:57:44;101263.84;;;1.44;64.45
19114;BME280;9689;51.052;13.772;2023-01-29T12:02:47;101263.56;;;1.62;63.26
19114;BME280;9689;51.052;13.772;2023-01-29T12:07:51;101243.25;;;1.69;63.00
19114;BME280;9689;51.052;13.772;2023-01-29T12:13:03;101232.06;;;1.67;63.08
19114;BME280;9689;51.052;13.772;2023-01-29T12:18:11;101238.13;;;1.98;61.76
19114;BME280;9689;51.052;13.772;2023-01-29T12:23:22;101214.59;;;2.14;62.66
19114;BME280;9689;51.052;13.772;2023-01-29T12:28:43;101196.81;;;2.22;62.08
19114;BME280;9689;51.052;13.772;2023-01-29T12:33:51;101177.88;;;2.18;61.68
19114;BME280;9689;51.052;13.772;2023-01-29T12:38:54;101188.19;;;1.90;62.92
19114;BME280;9689;51.052;13.772;2023-01-29T12:43:59;101179.16;;;2.03;62.47
19114;BME280;9689;51.052;13.772;2023-01-29T12:49:03;101177.53;;;2.06;62.25
19114;BME280;9689;51.052;13.772;2023-01-29T12:54:13;101179.59;;;1.89;62.76
19114;BME280;9689;51.052;13.772;2023-01-29T12:59:21;101175.84;;;1.78;64.00
19114;BME280;9689;51.052;13.772;2023-01-29T13:04:35;101159.38;;;2.00;63.02
19114;BME280;9689;51.052;13.772;2023-01-29T13:09:44;101169.03;;;2.72;68.21
19114;BME280;9689;51.052;13.772;2023-01-29T13:14:50;101151.56;;;2.60;62.52
19114;BME280;9689;51.052;13.772;2023-01-29T13:19:56;101148.28;;;2.66;62.35
19114;BME280;9689;51.052;13.772;2023-01-29T13:24:59;101139.81;;;2.37;61.88
19114;BME280;9689;51.052;13.772;2023-01-29T13:30:07;101128.19;;;2.19;62.66
19114;BME280;9689;51.052;13.772;2023-01-29T13:35:12;101131.38;;;2.11;63.87
19114;BME280;9689;51.052;13.772;2023-01-29T13:40:18;101138.06;;;2.36;63.09
19114;BME280;9689;51.052;13.772;2023-01-29T13:45:23;101131.47;;;2.45;62.49
19114;BME280;9689;51.052;13.772;2023-01-29T13:50:29;101143.78;;;2.25;62.87
19114;BME280;9689;51.052;13.772;2023-01-29T13:55:34;101152.53;;;2.01;64.32
19114;BME280;9689;51.052;13.772;2023-01-29T14:00:58;101138.13;;;2.07;63.97
19114;BME280;9689;51.052;13.772;2023-01-29T14:06:00;101135.31;;;1.68;65.29
19114;BME280;9689;51.052;13.772;2023-01-29T14:11:32;101125.84;;;1.97;64.98
19114;BME280;9689;51.052;13.772;2023-01-29T14:16:36;101125.16;;;2.03;64.56
19114;BME280;9689;51.052;13.772;2023-01-29T14:21:37;101132.44;;;1.87;65.44
19114;BME280;9689;51.052;13.772;2023-01-29T14:26:42;101123.66;;;1.81;65.87
19114;BME280;9689;51.052;13.772;2023-01-29T14:31:48;101106.03;;;1.63;66.32
19114;BME280;9689;51.052;13.772;2023-01-29T14:36:54;101110.53;;;1.70;66.61
19114;BME280;9689;51.052;13.772;2023-01-29T14:41:56;101105.53;;;1.75;66.27
19114;BME280;9689;51.052;13.772;2023-01-29T14:46:58;101112.22;;;1.69;66.84
19114;BME280;9689;51.052;13.772;2023-01-29T14:52:00;101116.06;;;1.55;67.16
19114;BME280;9689;51.052;13.772;2023-01-29T14:57:03;101134.25;;;1.61;67.49
19114;BME280;9689;51.052;13.772;2023-01-29T15:02:14;101135.13;;;1.62;66.84
19114;BME280;9689;51.052;13.772;2023-01-29T15:07:24;101122.03;;;1.54;67.00
19114;BME280;9689;51.052;13.772;2023-01-29T15:12:31;101124.16;;;1.39;67.92
19114;BME280;9689;51.052;13.772;2023-01-29T15:17:40;101123.13;;;1.32;68.09
19114;BME280;9689;51.052;13.772;2023-01-29T15:22:45;101112.56;;;1.23;68.67
19114;BME280;9689;51.052;13.772;2023-01-29T15:27:47;101106.66;;;1.84;70.42
19114;BME280;9689;51.052;13.772;2023-01-29T15:32:50;101107.47;;;1.25;68.33
19114;BME280;9689;51.052;13.772;2023-01-29T15:37:58;101105.69;;;0.95;70.28
19114;BME280;9689;51.052;13.772;2023-01-29T15:43:00;101098.78;;;1.78;70.95
19114;BME280;9689;51.052;13.772;2023-01-29T15:48:05;101095.59;;;1.28;69.00
19114;BME280;9689;51.052;13.772;2023-01-29T15:53:13;101087.31;;;1.67;70.05
19114;BME280;9689;51.052;13.772;2023-01-29T15:58:17;101083.09;;;1.12;68.77
19114;BME280;9689;51.052;13.772;2023-01-29T16:03:23;101084.19;;;0.92;69.54
19114;BME280;9689;51.052;13.772;2023-01-29T16:08:26;101080.00;;;0.68;70.18
19114;BME280;9689;51.052;13.772;2023-01-29T16:13:29;101061.84;;;0.88;70.25
19114;BME280;9689;51.052;13.772;2023-01-29T16:18:34;101063.19;;;0.76;70.69
19114;BME280;9689;51.052;13.772;2023-01-29T16:23:41;101067.78;;;0.87;70.15
19114;BME280;9689;51.052;13.772;2023-01-29T16:28:43;101060.72;;;0.79;69.89
19114;BME280;9689;51.052;13.772;2023-01-29T16:33:46;101051.63;;;0.89;70.13
19114;BME280;9689;51.052;13.772;2023-01-29T16:38:49;101039.66;;;1.18;69.00
19114;BME280;9689;51.052;13.772;2023-01-29T16:43:53;101041.31;;;1.16;69.31
19114;BME280;9689;51.052;13.772;2023-01-29T16:48:57;101044.16;;;0.97;69.32
19114;BME280;9689;51.052;13.772;2023-01-29T16:54:00;101040.81;;;0.99;69.13
19114;BME280;9689;51.052;13.772;2023-01-29T16:59:02;101033.63;;;0.88;69.32
19114;BME280;9689;51.052;13.772;2023-01-29T17:04:09;101027.69;;;0.62;70.62
19114;BME280;9689;51.052;13.772;2023-01-29T17:09:19;101021.22;;;0.74;70.32
19114;BME280;9689;51.052;13.772;2023-01-29T17:14:22;101024.09;;;0.85;69.60
19114;BME280;9689;51.052;13.772;2023-01-29T17:19:24;101019.56;;;0.76;69.38
19114;BME280;9689;51.052;13.772;2023-01-29T17:24:25;101016.97;;;0.75;69.56
19114;BME280;9689;51.052;13.772;2023-01-29T17:29:28;101011.28;;;0.85;69.32
19114;BME280;9689;51.052;13.772;2023-01-29T17:34:30;101010.69;;;0.65;70.00
19114;BME280;9689;51.052;13.772;2023-01-29T17:39:31;101019.56;;;0.76;69.59
19114;BME280;9689;51.052;13.772;2023-01-29T17:44:32;101020.31;;;0.72;69.31
19114;BME280;9689;51.052;13.772;2023-01-29T17:49:34;101008.69;;;0.56;69.85
19114;BME280;9689;51.052;13.772;2023-01-29T17:54:36;101005.34;;;0.59;69.12
19114;BME280;9689;51.052;13.772;2023-01-29T17:59:36;101006.41;;;0.66;69.24
19114;BME280;9689;51.052;13.772;2023-01-29T18:04:38;101006.66;;;0.73;68.48
19114;BME280;9689;51.052;13.772;2023-01-29T18:09:39;101004.69;;;0.65;67.48
19114;BME280;9689;51.052;13.772;2023-01-29T18:14:42;101001.56;;;0.48;67.47
19114;BME280;9689;51.052;13.772;2023-01-29T18:19:44;100987.56;;;0.64;67.70
19114;BME280;9689;51.052;13.772;2023-01-29T18:24:44;100980.00;;;0.41;67.31
19114;BME280;9689;51.052;13.772;2023-01-29T18:29:45;100980.16;;;0.46;67.56
19114;BME280;9689;51.052;13.772;2023-01-29T18:34:49;100973.22;;;0.43;67.90
19114;BME280;9689;51.052;13.772;2023-01-29T18:39:50;100967.97;;;0.39;67.13
19114;BME280;9689;51.052;13.772;2023-01-29T18:44:52;100970.31;;;0.33;67.54
19114;BME280;9689;51.052;13.772;2023-01-29T18:49:54;100952.13;;;0.25;67.88
19114;BME280;9689;51.052;13.772;2023-01-29T18:54:55;100954.66;;;0.23;67.49
19114;BME280;9689;51.052;13.772;2023-01-29T18:59:55;100939.59;;;0.07;68.58
19114;BME280;9689;51.052;13.772;2023-01-29T19:04:58;100932.97;;;0.14;67.80
19114;BME280;9689;51.052;13.772;2023-01-29T19:09:58;100921.91;;;0.15;67.66
19114;BME280;9689;51.052;13.772;2023-01-29T19:15:00;100915.63;;;0.05;68.19
19114;BME280;9689;51.052;13.772;2023-01-29T19:20:03;100913.50;;;-0.08;68.04
19114;BME280;9689;51.052;13.772;2023-01-29T19:25:05;100904.41;;;0.02;67.37
19114;BME280;9689;51.052;13.772;2023-01-29T19:30:07;100897.69;;;0.05;67.40
19114;BME280;9689;51.052;13.772;2023-01-29T19:35:11;100895.63;;;-0.07;67.15
19114;BME280;9689;51.052;13.772;2023-01-29T19:40:11;100887.72;;;-0.13;67.78
19114;BME280;9689;51.052;13.772;2023-01-29T19:45:13;100882.09;;;0.26;67.88
19114;BME280;9689;51.052;13.772;2023-01-29T19:50:16;100881.94;;;0.20;66.92
19114;BME280;9689;51.052;13.772;2023-01-29T19:55:17;100875.28;;;-0.01;66.83
19114;BME280;9689;51.052;13.772;2023-01-29T20:00:19;100887.97;;;-0.05;67.05
19114;BME280;9689;51.052;13.772;2023-01-29T20:05:21;100895.63;;;-0.07;66.95
19114;BME280;9689;51.052;13.772;2023-01-29T20:10:23;100889.50;;;-0.10;66.96
19114;BME280;9689;51.052;13.772;2023-01-29T20:15:26;100897.38;;;-0.31;67.06
19114;BME280;9689;51.052;13.772;2023-01-29T20:20:28;100901.88;;;-0.24;67.18
19114;BME280;9689;51.052;13.772;2023-01-29T20:25:31;100897.09;;;-0.39;67.81
19114;BME280;9689;51.052;13.772;2023-01-29T20:30:32;100894.63;;;-0.36;67.64
19114;BME280;9689;51.052;13.772;2023-01-29T20:35:35;100884.59;;;-0.55;67.97
19114;BME280;9689;51.052;13.772;2023-01-29T20:40:36;100876.47;;;-0.69;68.57
19114;BME280;9689;51.052;13.772;2023-01-29T20:45:38;100873.59;;;-0.78;68.93
19114;BME280;9689;51.052;13.772;2023-01-29T20:50:41;100875.97;;;-0.82;68.83
19114;BME280;9689;51.052;13.772;2023-01-29T20:55:43;100871.94;;;-0.76;69.02
19114;BME280;9689;51.052;13.772;2023-01-29T21:00:44;100867.38;;;-0.84;69.34
19114;BME280;9689;51.052;13.772;2023-01-29T21:05:47;100864.97;;;-0.80;69.62
19114;BME280;9689;51.052;13.772;2023-01-29T21:10:50;100845.78;;;-0.93;68.47
19114;BME280;9689;51.052;13.772;2023-01-29T21:15:51;100837.59;;;-0.82;69.01
19114;BME280;9689;51.052;13.772;2023-01-29T21:20:53;100824.88;;;-1.05;68.68
19114;BME280;9689;51.052;13.772;2023-01-29T21:25:59;100804.34;;;-1.06;68.69
19114;BME280;9689;51.052;13.772;2023-01-29T21:31:02;100801.09;;;-1.02;69.29
19114;BME280;9689;51.052;13.772;2023-01-29T21:36:05;100809.66;;;-1.02;69.11
19114;BME280;9689;51.052;13.772;2023-01-29T21:41:08;100801.41;;;-0.93;68.34
19114;BME280;9689;51.052;13.772;2023-01-29T21:46:09;100786.94;;;-0.93;66.96
19114;BME280;9689;51.052;13.772;2023-01-29T21:51:12;100786.38;;;-0.84;67.27
19114;BME280;9689;51.052;13.772;2023-01-29T21:56:12;100764.19;;;-0.85;67.43
19114;BME280;9689;51.052;13.772;2023-01-29T22:01:17;100758.91;;;-0.90;65.98
19114;BME280;9689;51.052;13.772;2023-01-29T22:06:38;100737.91;;;-0.79;66.05
19114;BME280;9689;51.052;13.772;2023-01-29T22:11:42;100724.94;;;-0.86;65.47
19114;BME280;9689;51.052;13.772;2023-01-29T22:16:43;100722.19;;;-0.65;65.50
19114;BME280;9689;51.052;13.772;2023-01-29T22:21:45;100706.03;;;-0.62;65.16
19114;BME280;9689;51.052;13.772;2023-01-29T22:26:48;100694.28;;;-0.57;65.25
19114;BME280;9689;51.052;13.772;2023-01-29T22:31:49;100667.72;;;-0.61;64.07
19114;BME280;9689;51.052;13.772;2023-01-29T22:36:51;100662.50;;;-0.64;65.58
19114;BME280;9689;51.052;13.772;2023-01-29T22:41:52;100649.97;;;-0.54;65.25
19114;BME280;9689;51.052;13.772;2023-01-29T22:46:52;100653.72;;;-0.72;65.73
19114;BME280;9689;51.052;13.772;2023-01-29T22:51:55;100637.13;;;-0.56;64.54
19114;BME280;9689;51.052;13.772;2023-01-29T22:57:10;100617.16;;;-0.39;64.62
19114;BME280;9689;51.052;13.772;2023-01-29T23:02:11;100601.00;;;-0.67;65.13
19114;BME280;9689;51.052;13.772;2023-01-29T23:07:13;100603.78;;;-0.59;63.91
19114;BME280;9689;51.052;13.772;2023-01-29T23:12:14;100596.16;;;-0.58;64.06
19114;BME280;9689;51.052;13.772;2023-01-29T23:17:15;100589.56;;;-0.49;63.91
19114;BME280;9689;51.052;13.772;2023-01-29T23:22:17;100591.03;;;-0.58;64.46
19114;BME280;9689;51.052;13.772;2023-01-29T23:27:18;100587.56;;;-0.60;64.41
19114;BME280;9689;51.052;13.772;2023-01-29T23:32:19;100571.75;;;-0.75;64.71
19114;BME280;9689;51.052;13.772;2023-01-29T23:37:21;100563.09;;;-0.50;64.65
19114;BME280;9689;51.052;13.772;2023-01-29T23:42:22;100541.25;;;-0.37;64.43
19114;BME280;9689;51.052;13.772;2023-01-29T23:47:23;100530.94;;;-0.40;63.32
19114;BME280;9689;51.052;13.772;2023-01-29T23:52:25;100504.13;;;-0.53;63.80
19114;BME280;9689;51.052;13.772;2023-01-29T23:57:26;100497.91;;;-0.61;64.51
